Time;durP1;ratioP1;P1;durP2;ratioP2;P2;SDS_P1;SDS_P2;PMS_P1;PMS_P2;Temp;Humidity;BMP_temperature;BMP_pressure;BME280_temperature;BME280_humidity;BME280_pressure;Samples;Min_cycle;Max_cycle;Signal;HPM_P1;HPM_P2
2021/04/19 00:00:15;;;;;;;7.63;6.93;;;9.00;37.80;;;;;;5009099;28;20052;-80
2021/04/19 00:02:42;;;;;;;10.00;8.90;;;9.00;37.90;;;;;;5009037;28;20033;-78
2021/04/19 00:05:13;;;;;;;8.93;8.02;;;8.90;37.80;;;;;;5009143;28;20416;-81
2021/04/19 00:07:39;;;;;;;9.15;8.23;;;8.90;37.90;;;;;;5008909;28;20522;-81
2021/04/19 00:10:06;;;;;;;8.43;7.53;;;8.90;37.90;;;;;;5008439;28;20030;-79
2021/04/19 00:12:32;;;;;;;10.07;8.50;;;8.80;37.80;;;;;;4975587;28;20161;-80
2021/04/19 00:14:58;;;;;;;9.02;7.65;;;8.80;37.90;;;;;;4994372;28;20041;-79
2021/04/19 00:17:24;;;;;;;8.60;7.53;;;8.80;37.90;;;;;;4996275;28;20053;-79
2021/04/19 00:19:50;;;;;;;10.52;7.65;;;8.80;38.00;;;;;;5012225;28;20476;-77
2021/04/19 00:22:16;;;;;;;8.27;7.47;;;8.80;38.10;;;;;;4996084;28;20060;-79
2021/04/19 00:24:42;;;;;;;9.05;8.15;;;8.70;37.90;;;;;;5011836;28;20029;-78
2021/04/19 00:27:08;;;;;;;7.78;6.95;;;8.60;37.80;;;;;;5029786;28;20029;-77
2021/04/19 00:29:34;;;;;;;10.57;8.00;;;8.60;37.90;;;;;;4996052;28;20025;-78
2021/04/19 00:32:00;;;;;;;9.02;7.25;;;8.60;37.90;;;;;;5029914;28;20140;-79
2021/04/19 00:34:26;;;;;;;9.52;8.60;;;8.50;37.80;;;;;;5029720;28;20128;-78
2021/04/19 00:36:53;;;;;;;8.90;8.05;;;8.50;37.90;;;;;;5029986;28;20063;-78
2021/04/19 00:39:19;;;;;;;9.00;8.07;;;8.50;38.00;;;;;;5028373;28;20064;-77
2021/04/19 00:41:46;;;;;;;8.95;8.07;;;8.50;38.00;;;;;;5028717;28;20053;-79
2021/04/19 00:44:12;;;;;;;9.65;7.75;;;8.50;38.10;;;;;;5027882;28;20132;-79
2021/04/19 00:46:39;;;;;;;7.80;7.05;;;8.40;38.00;;;;;;5012425;28;20045;-82
2021/04/19 00:49:05;;;;;;;9.45;8.13;;;8.30;37.80;;;;;;5030000;28;20481;-79
2021/04/19 00:51:31;;;;;;;9.73;8.25;;;8.40;38.10;;;;;;4995490;28;20026;-78
2021/04/19 00:53:57;;;;;;;10.02;8.35;;;8.30;38.00;;;;;;5011789;28;20087;-78
2021/04/19 00:56:23;;;;;;;11.38;7.25;;;8.30;38.10;;;;;;5011695;28;20049;-78
2021/04/19 00:58:49;;;;;;;9.90;8.55;;;8.30;38.20;;;;;;5008106;28;20072;-78
2021/04/19 01:01:16;;;;;;;8.77;7.57;;;8.20;38.00;;;;;;5008268;28;20060;-78
2021/04/19 01:03:42;;;;;;;9.85;7.72;;;8.20;38.10;;;;;;5017013;28;20029;-78
2021/04/19 01:06:10;;;;;;;8.00;7.20;;;8.20;38.20;;;;;;4995503;28;20030;-77
2021/04/19 01:08:37;;;;;;;8.88;7.68;;;8.20;38.20;;;;;;4995372;28;20560;-78
2021/04/19 01:11:03;;;;;;;8.70;7.65;;;8.10;38.10;;;;;;4991783;28;20568;-78
2021/04/19 01:13:31;;;;;;;10.43;7.85;;;8.10;38.20;;;;;;4991694;28;20038;-78
2021/04/19 01:15:57;;;;;;;8.30;7.28;;;8.10;38.20;;;;;;4975542;28;20503;-78
2021/04/19 01:18:23;;;;;;;9.95;7.63;;;8.10;38.20;;;;;;4975029;28;20030;-79
2021/04/19 01:20:51;;;;;;;8.43;7.63;;;8.00;38.10;;;;;;4976088;28;20192;-78
2021/04/19 01:23:19;;;;;;;9.05;7.68;;;8.00;38.20;;;;;;5008552;28;20401;-80
2021/04/19 01:25:46;;;;;;;10.15;8.18;;;7.90;38.10;;;;;;4990421;28;20033;-79
2021/04/19 01:28:14;;;;;;;10.25;8.07;;;7.90;38.10;;;;;;4975914;28;20399;-80
2021/04/19 01:30:43;;;;;;;9.10;8.20;;;7.90;38.20;;;;;;4990932;28;20076;-79
2021/04/19 01:33:10;;;;;;;9.30;7.50;;;7.80;38.10;;;;;;4992706;28;20425;-82
2021/04/19 01:35:37;;;;;;;9.00;7.80;;;7.80;38.10;;;;;;5010010;28;20129;-81
2021/04/19 01:38:05;;;;;;;8.85;7.80;;;7.80;38.10;;;;;;4992572;28;20038;-82
2021/04/19 01:40:33;;;;;;;8.30;7.40;;;7.80;38.20;;;;;;4993020;28;20036;-80
2021/04/19 01:43:07;;;;;;;10.13;7.80;;;7.70;38.10;;;;;;5009237;28;20045;-79
2021/04/19 01:45:51;;;;;;;9.00;8.10;;;7.70;38.10;;;;;;5009268;28;20084;-80
2021/04/19 01:48:23;;;;;;;10.40;7.82;;;7.70;38.10;;;;;;4995926;28;20037;-79
2021/04/19 01:50:52;;;;;;;10.23;9.05;;;7.70;38.30;;;;;;4980203;28;20029;-79
2021/04/19 01:53:21;;;;;;;8.60;7.32;;;7.60;38.70;;;;;;4996845;28;20083;-81
2021/04/19 01:55:47;;;;;;;11.75;8.00;;;7.60;38.20;;;;;;4980043;28;20037;-82
2021/04/19 01:58:25;;;;;;;9.23;7.78;;;7.50;38.10;;;;;;4996683;28;20498;-82
2021/04/19 02:00:54;;;;;;;8.27;7.47;;;7.50;38.20;;;;;;4979924;28;20034;-82
2021/04/19 02:03:49;;;;;;;10.05;8.27;;;7.50;38.30;;;;;;4996257;28;20030;-79
2021/04/19 02:06:27;;;;;;;11.07;8.20;;;7.50;38.40;;;;;;4979930;28;20385;-81
2021/04/19 02:09:19;;;;;;;9.38;6.95;;;7.40;38.20;;;;;;4980366;28;20036;-80
2021/04/19 02:12:34;;;;;;;8.55;7.65;;;7.40;38.20;;;;;;5010114;28;20045;-81
2021/04/19 02:15:15;;;;;;;7.82;7.00;;;7.40;38.30;;;;;;4957280;28;20439;-81
2021/04/19 02:17:57;;;;;;;8.38;7.57;;;7.40;38.20;;;;;;5033440;28;20033;-81
2021/04/19 02:20:30;;;;;;;8.63;7.80;;;7.30;38.00;;;;;;5015716;28;20060;-78
2021/04/19 02:23:01;;;;;;;9.13;6.93;;;7.30;38.10;;;;;;4998909;28;20507;-81
2021/04/19 02:25:39;;;;;;;9.52;8.50;;;7.30;38.20;;;;;;4984739;28;20464;-81
2021/04/19 02:28:34;;;;;;;9.32;7.35;;;7.30;38.30;;;;;;5015589;28;20061;-81
2021/04/19 02:31:09;;;;;;;8.63;7.65;;;7.20;38.10;;;;;;5015383;28;20172;-80
2021/04/19 02:33:42;;;;;;;10.05;8.68;;;7.20;38.10;;;;;;5014647;28;20041;-80
2021/04/19 02:36:11;;;;;;;11.00;8.45;;;7.20;38.20;;;;;;5014701;28;20489;-81
2021/04/19 02:38:49;;;;;;;9.97;7.77;;;7.10;38.10;;;;;;4983701;28;20032;-80
2021/04/19 02:41:19;;;;;;;9.48;8.50;;;7.10;38.10;;;;;;4999163;28;20266;-81
2021/04/19 02:43:46;;;;;;;9.15;7.80;;;7.10;38.10;;;;;;5014761;28;20157;-80
2021/04/19 02:46:16;;;;;;;8.82;7.78;;;7.10;38.20;;;;;;4998627;28;20025;-79
2021/04/19 02:48:46;;;;;;;13.70;8.35;;;7.00;38.10;;;;;;4999079;28;20033;-80
2021/04/19 02:51:22;;;;;;;7.93;7.22;;;7.00;38.20;;;;;;4999874;28;20477;-80
2021/04/19 02:53:49;;;;;;;9.25;7.90;;;7.00;38.20;;;;;;5014598;28;20504;-81
2021/04/19 02:56:16;;;;;;;8.73;7.80;;;7.00;38.30;;;;;;4997653;28;20516;-81
2021/04/19 02:58:49;;;;;;;8.73;7.75;;;6.90;38.20;;;;;;5014944;28;20022;-81
2021/04/19 03:01:25;;;;;;;8.65;7.75;;;6.90;38.30;;;;;;4999015;28;20069;-80
2021/04/19 03:03:57;;;;;;;10.38;8.10;;;6.90;38.40;;;;;;4998566;28;20053;-79
2021/04/19 03:06:25;;;;;;;10.02;8.27;;;6.90;38.40;;;;;;4997968;28;20025;-79
2021/04/19 03:08:58;;;;;;;11.93;8.38;;;6.90;38.50;;;;;;4998364;28;20025;-79
2021/04/19 03:11:37;;;;;;;8.88;7.97;;;6.80;38.30;;;;;;4998579;28;20056;-79
2021/04/19 03:14:05;;;;;;;11.00;9.05;;;6.80;38.40;;;;;;4998196;28;20264;-81
2021/04/19 03:17:01;;;;;;;9.75;8.73;;;6.80;38.40;;;;;;5009212;28;20489;-80
2021/04/19 03:20:03;;;;;;;9.45;8.48;;;6.70;38.20;;;;;;5014329;28;20424;-80
2021/04/19 03:22:42;;;;;;;9.82;8.48;;;6.70;38.30;;;;;;4984095;28;20056;-79
2021/04/19 03:25:10;;;;;;;10.35;8.27;;;6.70;38.20;;;;;;4997944;28;20469;-79
2021/04/19 03:27:41;;;;;;;11.30;8.77;;;6.70;38.30;;;;;;4981956;28;20038;-79
2021/04/19 03:30:11;;;;;;;10.07;8.95;;;6.60;38.20;;;;;;5032117;28;20026;-80
2021/04/19 03:32:50;;;;;;;9.65;8.63;;;6.70;38.40;;;;;;5010741;28;20397;-78
2021/04/19 03:35:21;;;;;;;12.30;9.38;;;6.60;38.30;;;;;;5011296;28;20037;-79
2021/04/19 03:37:49;;;;;;;10.40;9.30;;;6.60;38.40;;;;;;5013327;28;20028;-78
2021/04/19 03:40:22;;;;;;;11.88;9.25;;;6.60;38.40;;;;;;5014156;28;20025;-78
2021/04/19 03:42:53;;;;;;;9.93;8.90;;;6.50;38.30;;;;;;5013672;28;20413;-79
2021/04/19 03:45:24;;;;;;;11.02;9.10;;;6.50;38.30;;;;;;4997741;28;20030;-78
2021/04/19 03:48:22;;;;;;;10.93;9.40;;;6.50;38.30;;;;;;5005060;28;20120;-79
2021/04/19 03:51:06;;;;;;;9.85;8.77;;;6.50;38.40;;;;;;5014319;28;20120;-78
2021/04/19 03:53:38;;;;;;;13.40;8.93;;;6.40;38.20;;;;;;5013186;28;20041;-79
2021/04/19 03:56:06;;;;;;;10.43;9.07;;;6.40;38.20;;;;;;4997527;28;20041;-79
2021/04/19 03:58:44;;;;;;;9.70;8.32;;;6.40;38.20;;;;;;5013652;28;20083;-79
2021/04/19 04:01:15;;;;;;;10.43;8.82;;;6.40;38.30;;;;;;4997215;28;20439;-77
2021/04/19 04:03:57;;;;;;;9.77;8.77;;;6.40;38.40;;;;;;5013670;28;20357;-78
2021/04/19 04:06:31;;;;;;;11.38;9.40;;;6.30;38.30;;;;;;5013785;28;20133;-79
2021/04/19 04:09:00;;;;;;;10.20;9.18;;;6.30;38.30;;;;;;5013674;28;20067;-78
2021/04/19 04:11:27;;;;;;;11.88;10.18;;;6.30;38.40;;;;;;4997183;28;20052;-80
2021/04/19 04:14:04;;;;;;;15.38;9.52;;;6.30;38.40;;;;;;5013408;28;20045;-80
2021/04/19 04:16:34;;;;;;;13.05;10.63;;;6.20;38.30;;;;;;4997425;28;20025;-80
2021/04/19 04:19:06;;;;;;;13.55;9.40;;;6.20;38.40;;;;;;5014314;28;20473;-78
2021/04/19 04:21:40;;;;;;;11.80;10.15;;;6.20;38.40;;;;;;4998164;28;20422;-79
2021/04/19 04:24:20;;;;;;;12.13;9.45;;;6.20;38.50;;;;;;5013595;28;20030;-78
2021/04/19 04:26:46;;;;;;;10.13;9.02;;;6.10;38.30;;;;;;4996873;28;20037;-80
2021/04/19 04:29:13;;;;;;;11.45;9.57;;;6.10;38.40;;;;;;4997129;28;20079;-79
2021/04/19 04:31:48;;;;;;;10.70;9.18;;;6.10;38.40;;;;;;4998133;28;20064;-78
2021/04/19 04:34:14;;;;;;;13.50;10.20;;;6.10;38.50;;;;;;4980757;28;20106;-79
2021/04/19 04:36:44;;;;;;;13.35;10.73;;;6.10;38.60;;;;;;5013105;28;20029;-78
2021/04/19 04:39:18;;;;;;;11.48;9.82;;;6.10;38.60;;;;;;5031038;28;20029;-80
2021/04/19 04:41:51;;;;;;;9.73;8.77;;;6.10;38.60;;;;;;4997486;28;20108;-81
2021/04/19 04:44:24;;;;;;;11.20;10.05;;;6.00;38.50;;;;;;5013220;28;20048;-80
2021/04/19 04:47:18;;;;;;;12.15;10.23;;;6.00;38.60;;;;;;4997731;28;20079;-80
2021/04/19 04:49:56;;;;;;;10.30;9.30;;;6.00;38.60;;;;;;4983832;28;20038;-79
2021/04/19 04:52:23;;;;;;;11.77;10.35;;;6.00;38.60;;;;;;4990171;28;20121;-79
2021/04/19 04:54:50;;;;;;;11.85;10.07;;;6.00;38.60;;;;;;4957386;28;20385;-78
2021/04/19 04:57:22;;;;;;;13.63;9.32;;;6.00;38.60;;;;;;4971264;28;20065;-80
2021/04/19 04:59:50;;;;;;;13.95;10.77;;;6.00;38.80;;;;;;5006072;28;20053;-83
2021/04/19 05:02:21;;;;;;;15.32;10.70;;;6.00;38.70;;;;;;5025994;28;20030;-79
2021/04/19 05:04:49;;;;;;;13.75;10.90;;;5.90;38.60;;;;;;5008386;28;20197;-81
2021/04/19 05:07:16;;;;;;;13.40;10.25;;;5.90;38.60;;;;;;5005604;28;20030;-80
2021/04/19 05:09:47;;;;;;;14.10;11.85;;;5.90;38.60;;;;;;5023310;28;20528;-80
2021/04/19 05:12:14;;;;;;;11.82;10.02;;;5.90;38.70;;;;;;5011050;28;20053;-80
2021/04/19 05:14:54;;;;;;;12.85;10.05;;;5.90;38.70;;;;;;4995385;28;20493;-82
2021/04/19 05:17:20;;;;;;;11.85;10.02;;;5.90;38.70;;;;;;4995286;28;20036;-80
2021/04/19 05:19:46;;;;;;;11.15;9.95;;;5.90;38.70;;;;;;5011152;28;20029;-80
2021/04/19 05:22:14;;;;;;;11.38;10.25;;;5.90;38.80;;;;;;4995780;28;20576;-79
2021/04/19 05:24:42;;;;;;;12.80;10.38;;;5.90;38.80;;;;;;5011234;28;20393;-81
2021/04/19 05:27:10;;;;;;;14.18;10.50;;;5.80;38.60;;;;;;5012834;28;20030;-83
2021/04/19 05:29:45;;;;;;;11.35;10.13;;;5.80;39.30;;;;;;5012143;28;20048;-85
2021/04/19 05:32:18;;;;;;;12.30;10.02;;;5.80;38.70;;;;;;5011707;28;20045;-79
2021/04/19 05:34:53;;;;;;;10.40;9.35;;;5.80;38.70;;;;;;5012902;28;20049;-81
2021/04/19 05:37:24;;;;;;;12.68;10.40;;;5.80;38.70;;;;;;5011150;28;20025;-79
2021/04/19 05:39:51;;;;;;;17.30;10.73;;;5.80;38.80;;;;;;4995314;28;20091;-80
2021/04/19 05:42:17;;;;;;;14.90;10.73;;;5.80;38.80;;;;;;4994945;28;20026;-83
2021/04/19 05:44:45;;;;;;;12.45;10.25;;;5.90;39.00;;;;;;5012041;28;20124;-84
2021/04/19 05:47:13;;;;;;;13.15;10.27;;;5.80;38.80;;;;;;5012299;28;20029;-78
2021/04/19 05:49:40;;;;;;;12.80;10.20;;;5.90;39.10;;;;;;4993229;28;20403;-82
2021/04/19 05:52:10;;;;;;;13.63;12.15;;;5.90;39.10;;;;;;4995006;28;20997;-83
2021/04/19 05:54:36;;;;;;;18.42;11.52;;;6.00;39.30;;;;;;4991835;28;20053;-79
2021/04/19 05:57:11;;;;;;;15.48;12.68;;;6.00;39.70;;;;;;4982775;28;20083;-81
2021/04/19 05:59:56;;;;;;;18.48;13.63;;;6.10;40.60;;;;;;4991022;28;20046;-85
2021/04/19 06:02:57;;;;;;;17.40;12.52;;;6.30;41.30;;;;;;5012333;28;20532;-82
2021/04/19 06:05:36;;;;;;;15.13;13.32;;;6.40;41.50;;;;;;4986121;28;20033;-84
2021/04/19 06:08:18;;;;;;;16.52;14.40;;;6.50;41.60;;;;;;4979412;28;20041;-81
2021/04/19 06:11:29;;;;;;;15.95;12.63;;;6.60;42.00;;;;;;4994581;28;20132;-82
2021/04/19 06:14:03;;;;;;;17.30;13.88;;;6.80;42.50;;;;;;5005111;28;20045;-83
2021/04/19 06:16:36;;;;;;;15.50;13.85;;;6.90;42.60;;;;;;5010567;28;20033;-85
2021/04/19 06:19:04;;;;;;;15.57;12.98;;;7.00;43.00;;;;;;5030588;28;20040;-83
2021/04/19 06:21:33;;;;;;;20.42;13.68;;;7.10;43.10;;;;;;4991432;28;20073;-84
2021/04/19 06:24:05;;;;;;;16.58;12.48;;;7.30;43.60;;;;;;5021376;28;20034;-86
2021/04/19 06:26:33;;;;;;;16.60;13.25;;;7.40;43.90;;;;;;5012901;28;20506;-83
2021/04/19 06:29:02;;;;;;;18.92;12.48;;;7.50;44.00;;;;;;5022145;28;20022;-86
2021/04/19 06:31:30;;;;;;;16.40;13.55;;;7.60;44.20;;;;;;5028834;28;20124;-83
2021/04/19 06:34:07;;;;;;;15.18;13.57;;;7.80;44.50;;;;;;5037703;28;20061;-90
2021/04/19 06:36:42;;;;;;;16.70;12.88;;;7.90;44.80;;;;;;5011655;28;20072;-91
2021/04/19 06:39:11;;;;;;;16.45;14.25;;;8.10;45.00;;;;;;5011776;28;20504;-87
2021/04/19 06:41:37;;;;;;;16.75;14.00;;;8.20;45.00;;;;;;5011644;28;20036;-89
2021/04/19 06:44:05;;;;;;;17.38;13.15;;;8.40;45.30;;;;;;5014117;28;20380;-87
2021/04/19 06:46:33;;;;;;;16.40;14.77;;;8.50;45.50;;;;;;5013913;28;20519;-87
2021/04/19 06:48:59;;;;;;;19.38;14.80;;;8.70;45.80;;;;;;5012827;28;20548;-82
2021/04/19 06:51:26;;;;;;;14.98;13.27;;;8.90;46.10;;;;;;5000275;28;20093;-88
2021/04/19 06:53:54;;;;;;;17.08;13.50;;;9.10;46.40;;;;;;4996937;28;20041;-85
2021/04/19 06:56:23;;;;;;;16.67;14.77;;;9.20;46.40;;;;;;4996002;28;20552;-82
2021/04/19 06:58:54;;;;;;;14.93;13.32;;;9.50;46.80;;;;;;4995661;28;20037;-82
2021/04/19 07:01:22;;;;;;;17.52;14.93;;;9.70;47.00;;;;;;5011590;28;20041;-85
2021/04/19 07:04:06;;;;;;;15.35;12.93;;;9.90;47.20;;;;;;4996101;28;20504;-90
2021/04/19 07:06:34;;;;;;;16.55;14.38;;;10.20;47.60;;;;;;5030619;28;20033;-88
2021/04/19 07:09:14;;;;;;;16.30;13.68;;;10.40;47.50;;;;;;5015819;28;20136;-81
2021/04/19 07:11:43;;;;;;;15.95;14.35;;;10.70;47.90;;;;;;5004156;28;20060;-84
2021/04/19 07:14:09;;;;;;;18.88;13.68;;;10.90;47.80;;;;;;4996763;28;20099;-86
2021/04/19 07:16:36;;;;;;;14.80;13.25;;;11.20;48.00;;;;;;5011241;28;20026;-84
2021/04/19 07:19:04;;;;;;;16.25;13.40;;;11.40;48.00;;;;;;4995171;28;20152;-84
2021/04/19 07:21:33;;;;;;;15.95;14.23;;;11.60;48.00;;;;;;4996127;28;20037;-88
2021/04/19 07:24:04;;;;;;;14.80;13.38;;;11.90;48.20;;;;;;4996817;28;20037;-86
2021/04/19 07:26:31;;;;;;;21.67;14.70;;;12.10;48.20;;;;;;4978480;28;20296;-81
2021/04/19 07:28:58;;;;;;;15.32;13.65;;;12.30;48.10;;;;;;5001757;28;20481;-79
2021/04/19 07:31:24;;;;;;;19.42;14.27;;;12.50;48.00;;;;;;4993996;28;20036;-81
2021/04/19 07:33:52;;;;;;;17.75;14.80;;;12.70;48.00;;;;;;5038649;28;20033;-81
2021/04/19 07:36:28;;;;;;;14.95;13.45;;;12.90;47.90;;;;;;5009377;28;20124;-78
2021/04/19 07:38:59;;;;;;;16.38;14.30;;;13.00;47.70;;;;;;4993816;28;20026;-79
2021/04/19 07:41:44;;;;;;;16.55;13.57;;;13.20;47.70;;;;;;4992808;28;20037;-78
2021/04/19 07:44:11;;;;;;;15.40;13.90;;;13.30;47.50;;;;;;4992416;28;20036;-77
2021/04/19 07:46:37;;;;;;;14.88;13.48;;;13.50;47.70;;;;;;4993057;28;20032;-79
2021/04/19 07:49:08;;;;;;;15.48;13.95;;;13.70;47.70;;;;;;5009847;28;20447;-82
2021/04/19 07:51:37;;;;;;;17.17;14.52;;;13.80;47.50;;;;;;4993003;28;20492;-80
2021/04/19 07:54:12;;;;;;;15.82;14.13;;;14.00;47.50;;;;;;5010182;28;20041;-84
2021/04/19 07:56:44;;;;;;;17.23;14.50;;;14.20;47.40;;;;;;5009059;28;20029;-80
2021/04/19 07:59:31;;;;;;;17.17;14.73;;;14.30;47.20;;;;;;4994099;28;20033;-81
2021/04/19 08:02:15;;;;;;;16.42;14.75;;;14.50;47.10;;;;;;5009075;28;20029;-78
2021/04/19 08:04:47;;;;;;;16.10;14.38;;;14.70;47.10;;;;;;4994546;28;20120;-80
2021/04/19 08:07:21;;;;;;;17.23;14.20;;;14.80;46.90;;;;;;4993500;28;20079;-90
2021/04/19 08:10:07;;;;;;;20.77;18.33;;;15.00;46.90;;;;;;5026001;28;20053;-84
2021/04/19 08:12:42;;;;;;;19.70;16.02;;;15.10;46.50;;;;;;5009823;28;20162;-81
2021/04/19 08:15:17;;;;;;;16.45;14.75;;;15.10;46.50;;;;;;5011427;28;20382;-81
2021/04/19 08:17:43;;;;;;;22.52;15.07;;;15.20;46.50;;;;;;5012865;28;20513;-86
2021/04/19 08:20:11;;;;;;;17.92;14.75;;;15.30;46.40;;;;;;4995872;28;20139;-84
2021/04/19 08:22:41;;;;;;;23.50;15.82;;;15.40;46.30;;;;;;5013801;28;20041;-83
2021/04/19 08:25:14;;;;;;;19.58;15.75;;;15.40;45.90;;;;;;5011990;28;20044;-89
2021/04/19 08:27:44;;;;;;;20.15;16.27;;;15.40;45.70;;;;;;5009109;28;20068;-85
2021/04/19 08:30:15;;;;;;;17.90;15.95;;;15.40;45.60;;;;;;5010704;28;20087;-82
2021/04/19 08:32:47;;;;;;;19.15;15.98;;;15.30;45.30;;;;;;5010171;28;20041;-86
2021/04/19 08:35:15;;;;;;;18.30;16.40;;;15.20;45.10;;;;;;4995477;28;20052;-83
2021/04/19 08:37:43;;;;;;;24.65;16.20;;;15.20;45.10;;;;;;5014866;28;20061;-82
2021/04/19 08:40:13;;;;;;;19.90;16.00;;;15.10;45.00;;;;;;5013461;28;20100;-83
2021/04/19 08:43:24;;;;;;;20.10;17.85;;;15.10;45.00;;;;;;5014193;28;20049;-85
2021/04/19 08:45:51;;;;;;;18.05;15.60;;;15.00;44.70;;;;;;5012657;28;20029;-81
2021/04/19 08:48:17;;;;;;;18.88;16.98;;;14.90;44.70;;;;;;5012348;28;20122;-82
2021/04/19 08:50:46;;;;;;;19.42;17.27;;;14.90;44.70;;;;;;5029704;28;20437;-84
2021/04/19 08:53:15;;;;;;;21.52;17.10;;;14.80;44.50;;;;;;5028498;28;20552;-84
2021/04/19 08:55:42;;;;;;;20.30;16.35;;;14.80;44.60;;;;;;5014739;28;20044;-88
2021/04/19 08:58:10;;;;;;;18.30;16.45;;;14.80;44.50;;;;;;4992228;28;20026;-84
2021/04/19 09:00:42;;;;;;;20.27;16.73;;;14.80;44.50;;;;;;4961567;28;20034;-86
2021/04/19 09:03:10;;;;;;;22.38;18.05;;;14.70;44.30;;;;;;4993180;28;20061;-86
2021/04/19 09:05:37;;;;;;;23.00;17.88;;;14.80;44.50;;;;;;4976944;28;20136;-82
2021/04/19 09:08:12;;;;;;;18.80;17.02;;;14.70;44.30;;;;;;4986356;28;20045;-84
2021/04/19 09:10:59;;;;;;;21.17;17.23;;;14.70;44.30;;;;;;5013604;28;20092;-84
2021/04/19 09:13:30;;;;;;;22.27;17.05;;;14.70;44.20;;;;;;4996546;28;20029;-85
2021/04/19 09:16:15;;;;;;;22.50;18.70;;;14.80;44.40;;;;;;5012984;28;20037;-85
2021/04/19 09:18:45;;;;;;;22.10;17.50;;;14.80;44.30;;;;;;5012976;28;20037;-83
2021/04/19 09:21:32;;;;;;;20.35;17.33;;;14.80;44.30;;;;;;5029303;28;20295;-83
2021/04/19 09:23:58;;;;;;;19.63;15.85;;;14.70;44.00;;;;;;5011891;28;20124;-84
2021/04/19 09:26:49;;;;;;;20.17;17.95;;;14.80;44.20;;;;;;5028498;28;20128;-82
2021/04/19 09:29:27;;;;;;;19.95;18.02;;;14.80;44.10;;;;;;5011525;28;20037;-83
2021/04/19 09:32:19;;;;;;;19.25;16.70;;;14.80;44.10;;;;;;5028305;28;20120;-81
2021/04/19 09:34:53;;;;;;;20.05;17.38;;;14.90;44.20;;;;;;5027493;28;20041;-80
2021/04/19 09:37:43;;;;;;;23.45;18.75;;;14.90;44.20;;;;;;5012450;28;20030;-85
2021/04/19 09:40:21;;;;;;;22.23;17.80;;;14.90;44.10;;;;;;5011401;28;20124;-81
2021/04/19 09:42:56;;;;;;;19.45;17.25;;;14.90;44.00;;;;;;5028395;28;20079;-82
2021/04/19 09:45:45;;;;;;;22.15;18.58;;;14.90;44.00;;;;;;5027995;28;20061;-84
2021/04/19 09:48:33;;;;;;;22.15;17.95;;;15.00;44.10;;;;;;5027459;28;20038;-84
2021/04/19 09:51:02;;;;;;;21.25;18.75;;;15.00;44.00;;;;;;5028103;28;20033;-81
2021/04/19 09:53:30;;;;;;;18.10;16.20;;;15.10;44.20;;;;;;5027547;28;20032;-82
2021/04/19 09:55:57;;;;;;;21.52;18.15;;;15.10;44.10;;;;;;5010322;28;20080;-83
2021/04/19 09:58:24;;;;;;;22.10;18.23;;;15.10;44.00;;;;;;5028546;28;20034;-80
2021/04/19 10:00:54;;;;;;;21.17;17.92;;;15.20;44.10;;;;;;5027715;28;20029;-83
2021/04/19 10:03:21;;;;;;;23.95;18.35;;;15.20;44.00;;;;;;5010649;28;20085;-81
2021/04/19 10:05:53;;;;;;;19.95;17.10;;;15.30;44.20;;;;;;4994919;28;20132;-87
2021/04/19 10:08:21;;;;;;;20.98;18.88;;;15.30;44.10;;;;;;5028972;28;20385;-85
2021/04/19 10:10:52;;;;;;;23.63;18.10;;;15.30;44.00;;;;;;5027814;28;20507;-83
2021/04/19 10:13:28;;;;;;;19.10;17.20;;;15.40;44.10;;;;;;5028720;28;20033;-83
2021/04/19 10:16:03;;;;;;;20.75;18.58;;;15.40;44.00;;;;;;5029741;28;20124;-89
2021/04/19 10:18:34;;;;;;;23.58;18.40;;;15.50;44.10;;;;;;5012803;28;20037;-87
2021/04/19 10:21:00;;;;;;;22.50;18.35;;;15.50;44.00;;;;;;5012960;28;20022;-85
2021/04/19 10:23:39;;;;;;;20.88;18.52;;;15.60;44.10;;;;;;5028191;28;20068;-81
2021/04/19 10:26:05;;;;;;;21.55;17.83;;;15.60;43.90;;;;;;5012246;28;20034;-82
2021/04/19 10:28:56;;;;;;;21.90;19.60;;;15.70;44.10;;;;;;5028400;28;20045;-86
2021/04/19 10:31:22;;;;;;;22.55;20.02;;;15.80;44.10;;;;;;4979895;28;20279;-85
2021/04/19 10:33:51;;;;;;;23.67;20.63;;;15.80;44.10;;;;;;5028325;28;20039;-86
2021/04/19 10:36:22;;;;;;;21.83;19.70;;;15.80;44.00;;;;;;5013061;28;20041;-86
2021/04/19 10:38:51;;;;;;;23.25;20.38;;;15.90;44.10;;;;;;5012518;28;20101;-89
2021/04/19 10:41:32;;;;;;;23.80;21.35;;;15.90;44.00;;;;;;5013275;28;20116;-93
2021/04/19 10:43:59;;;;;;;24.98;20.08;;;16.00;44.00;;;;;;4996940;28;20033;-86
2021/04/19 10:46:32;;;;;;;24.55;21.33;;;16.00;44.00;;;;;;5031435;28;20112;-92
2021/04/19 10:49:00;;;;;;;23.27;20.77;;;16.00;44.00;;;;;;5013450;28;20025;-88
2021/04/19 10:51:27;;;;;;;22.77;20.42;;;16.00;43.90;;;;;;5014923;28;20037;-91
2021/04/19 10:53:55;;;;;;;25.85;21.73;;;16.00;43.90;;;;;;5015519;28;20041;-90
2021/04/19 10:56:24;;;;;;;26.45;20.85;;;16.10;44.00;;;;;;5014283;28;20120;-87
2021/04/19 10:58:53;;;;;;;23.05;20.50;;;16.30;44.30;;;;;;5012904;28;20025;-87
2021/04/19 11:01:37;;;;;;;24.65;20.73;;;16.40;44.30;;;;;;5016203;28;20158;-88
2021/04/19 11:04:05;;;;;;;23.70;20.73;;;16.60;44.50;;;;;;5013037;28;20572;-86
2021/04/19 11:06:32;;;;;;;29.65;20.73;;;16.70;44.50;;;;;;5026593;28;20069;-83
2021/04/19 11:09:05;;;;;;;23.58;21.08;;;16.80;44.60;;;;;;5009252;28;20404;-82
2021/04/19 11:11:39;;;;;;;23.73;20.65;;;16.90;44.50;;;;;;5027218;28;20049;-87
2021/04/19 11:14:39;;;;;;;21.02;18.80;;;17.00;44.50;;;;;;5009881;28;20060;-82
2021/04/19 11:17:08;;;;;;;23.35;21.05;;;17.20;44.70;;;;;;4992032;28;20049;-82
2021/04/19 11:19:44;;;;;;;22.10;19.65;;;17.30;44.80;;;;;;5004832;28;20040;-82
2021/04/19 11:22:28;;;;;;;22.95;20.55;;;17.50;45.00;;;;;;5027261;28;20029;-83
2021/04/19 11:25:09;;;;;;;22.70;20.27;;;17.60;44.90;;;;;;5025979;28;20030;-81
2021/04/19 11:27:36;;;;;;;22.00;19.67;;;17.70;45.00;;;;;;5009304;28;20033;-82
2021/04/19 11:30:27;;;;;;;20.88;18.77;;;17.90;45.20;;;;;;5025272;28;20029;-83
2021/04/19 11:33:14;;;;;;;21.85;19.67;;;18.00;45.10;;;;;;4992854;28;20033;-81
2021/04/19 11:35:45;;;;;;;22.92;20.38;;;18.20;45.30;;;;;;5009263;28;20433;-82
2021/04/19 11:38:23;;;;;;;20.67;18.50;;;18.30;45.30;;;;;;5025673;28;20029;-83
2021/04/19 11:40:57;;;;;;;21.60;19.40;;;18.40;45.30;;;;;;5026724;28;20124;-80
2021/04/19 11:43:46;;;;;;;;;;;18.60;45.50;;;;;;5026644;28;20065;-86
2021/04/19 11:46:14;;;;;;;22.55;18.27;;;18.60;45.50;;;;;;5009152;28;20202;-82
2021/04/19 11:48:45;;;;;;;19.67;17.58;;;18.70;45.50;;;;;;5009129;28;20508;-85
2021/04/19 11:51:14;;;;;;;20.52;18.17;;;18.70;45.40;;;;;;5009545;28;20807;-82
2021/04/19 11:53:43;;;;;;;20.38;18.20;;;18.80;45.60;;;;;;5029867;28;20033;-85
2021/04/19 11:56:10;;;;;;;20.58;18.45;;;18.90;45.60;;;;;;4992343;28;20477;-83
2021/04/19 11:58:38;;;;;;;20.92;18.55;;;19.00;45.60;;;;;;4976522;28;20057;-80
2021/04/19 12:01:07;;;;;;;20.33;17.50;;;19.10;45.60;;;;;;5008810;28;20030;-81
2021/04/19 12:03:33;;;;;;;19.48;17.50;;;19.20;45.60;;;;;;5008449;28;20076;-81
2021/04/19 12:06:00;;;;;;;18.60;16.60;;;19.20;45.50;;;;;;5008748;28;20060;-81
2021/04/19 12:08:26;;;;;;;18.63;16.73;;;19.30;45.70;;;;;;5026404;28;20427;-82
2021/04/19 12:10:52;;;;;;;19.05;17.10;;;19.50;45.90;;;;;;5008152;28;20057;-80
2021/04/19 12:13:19;;;;;;;22.20;19.90;;;19.60;45.90;;;;;;5008502;28;20076;-80
2021/04/19 12:15:48;;;;;;;22.77;18.52;;;19.70;45.20;;;;;;5009147;28;20185;-82
2021/04/19 12:18:14;;;;;;;20.17;18.10;;;19.70;44.30;;;;;;4992585;28;20025;-82
2021/04/19 12:20:43;;;;;;;21.02;16.73;;;19.70;43.70;;;;;;5026666;28;20527;-87
2021/04/19 12:23:10;;;;;;;22.08;16.95;;;19.70;43.30;;;;;;5013960;28;20032;-86
2021/04/19 12:25:35;;;;;;;15.65;13.77;;;19.70;42.80;;;;;;5030133;28;20044;-83
2021/04/19 12:28:02;;;;;;;17.58;13.15;;;19.70;42.20;;;;;;5028882;28;20026;-84
2021/04/19 12:30:31;;;;;;;17.23;12.98;;;19.60;41.70;;;;;;4992268;28;20057;-82
2021/04/19 12:32:58;;;;;;;16.83;13.15;;;19.60;41.30;;;;;;5029348;28;20225;-81
2021/04/19 12:35:25;;;;;;;17.65;13.80;;;19.70;41.70;;;;;;5026128;28;20041;-80
2021/04/19 12:37:51;;;;;;;17.60;13.98;;;19.70;41.70;;;;;;5026582;28;20473;-82
2021/04/19 12:40:19;;;;;;;14.77;13.30;;;19.80;41.90;;;;;;5025539;28;20030;-83
2021/04/19 12:42:45;;;;;;;13.95;11.93;;;19.90;42.00;;;;;;5026158;28;20072;-85
2021/04/19 12:45:12;;;;;;;13.95;12.55;;;20.00;42.20;;;;;;5025285;28;20033;-82
2021/04/19 12:47:38;;;;;;;16.42;13.40;;;20.00;42.10;;;;;;5009359;28;20444;-85
2021/04/19 12:50:05;;;;;;;15.05;12.02;;;20.10;42.30;;;;;;5026771;28;20025;-84
2021/04/19 12:52:32;;;;;;;13.65;11.98;;;20.10;42.20;;;;;;5026556;28;20040;-86
2021/04/19 12:54:58;;;;;;;14.88;12.30;;;20.20;42.40;;;;;;4992897;28;20042;-85
2021/04/19 12:57:25;;;;;;;14.90;13.10;;;20.30;42.50;;;;;;5009605;28;20022;-87
2021/04/19 12:59:51;;;;;;;13.57;12.23;;;20.30;43.10;;;;;;5026588;28;20040;-86
2021/04/19 13:02:17;;;;;;;13.25;11.95;;;20.40;42.70;;;;;;5024913;28;20462;-83